createdAt,value
2023-10-26T00:01:21.434Z,15.06
2023-10-26T00:03:50.950Z,15.01
2023-10-26T00:06:19.117Z,14.97
2023-10-26T00:08:47.192Z,14.98
2023-10-26T00:11:15.272Z,14.97
2023-10-26T00:13:43.274Z,14.93
2023-10-26T00:16:11.268Z,14.90
2023-10-26T00:18:39.433Z,14.86
2023-10-26T00:21:09.357Z,14.83
2023-10-26T00:23:37.430Z,14.80
2023-10-26T00:26:05.810Z,14.80
2023-10-26T00:28:33.771Z,14.78
2023-10-26T00:31:01.767Z,14.75
2023-10-26T00:33:29.812Z,14.73
2023-10-26T00:35:58.259Z,14.79
2023-10-26T00:38:27.702Z,14.86
2023-10-26T00:40:55.683Z,14.79
2023-10-26T00:43:25.354Z,14.76
2023-10-26T00:45:54.354Z,14.76
2023-10-26T00:48:26.100Z,14.73
2023-10-26T00:50:54.684Z,14.75
2023-10-26T00:53:23.237Z,14.81
2023-10-26T00:55:54.170Z,14.76
2023-10-26T00:58:26.930Z,14.69
2023-10-26T01:00:55.375Z,14.68
2023-10-26T01:03:25.883Z,14.90
2023-10-26T01:05:53.990Z,15.04
2023-10-26T01:08:22.062Z,14.95
2023-10-26T01:10:50.093Z,14.87
2023-10-26T01:13:20.129Z,14.85
2023-10-26T01:15:48.180Z,14.78
2023-10-26T01:18:16.274Z,14.75
2023-10-26T01:20:44.837Z,14.72
2023-10-26T01:23:14.198Z,14.69
2023-10-26T01:25:42.713Z,14.72
2023-10-26T01:28:11.527Z,14.76
2023-10-26T01:30:43.079Z,14.74
2023-10-26T01:33:11.255Z,14.71
2023-10-26T01:35:42.519Z,14.72
2023-10-26T01:38:10.859Z,14.72
2023-10-26T01:40:40.435Z,14.77
2023-10-26T01:43:08.521Z,14.84
2023-10-26T01:45:36.610Z,14.79
2023-10-26T01:48:05.105Z,14.78
2023-10-26T01:50:34.138Z,14.80
2023-10-26T01:53:02.174Z,14.84
2023-10-26T01:55:30.127Z,14.79
2023-10-26T01:58:00.361Z,14.85
2023-10-26T02:00:28.498Z,14.84
2023-10-26T02:02:57.311Z,14.75
2023-10-26T02:05:26.348Z,14.74
2023-10-26T02:07:54.641Z,14.77
2023-10-26T02:10:25.090Z,14.69
2023-10-26T02:12:53.081Z,14.75
2023-10-26T02:15:22.549Z,14.76
2023-10-26T02:17:50.697Z,14.75
2023-10-26T02:20:18.914Z,14.69
2023-10-26T02:22:48.029Z,14.72
2023-10-26T02:25:16.727Z,14.67
2023-10-26T02:27:44.810Z,14.61
2023-10-26T02:30:13.850Z,14.64
2023-10-26T02:32:43.314Z,14.59
2023-10-26T02:35:11.348Z,14.60
2023-10-26T02:37:40.589Z,14.67
2023-10-26T02:40:11.111Z,14.56
2023-10-26T02:42:40.283Z,14.42
2023-10-26T02:45:10.309Z,14.37
2023-10-26T02:47:39.910Z,14.31
2023-10-26T02:50:10.784Z,14.30
2023-10-26T02:52:39.449Z,14.36
2023-10-26T02:55:08.716Z,14.36
2023-10-26T02:57:36.888Z,14.38
2023-10-26T03:00:06.262Z,14.43
2023-10-26T03:02:34.371Z,14.39
2023-10-26T03:05:03.922Z,14.36
2023-10-26T03:07:33.442Z,14.36
2023-10-26T03:10:01.636Z,14.38
2023-10-26T03:12:29.910Z,14.34
2023-10-26T03:14:57.980Z,14.33
2023-10-26T03:17:26.043Z,14.33
2023-10-26T03:19:54.611Z,14.33
2023-10-26T03:22:23.667Z,14.38
2023-10-26T03:24:53.491Z,14.48
2023-10-26T03:27:21.618Z,14.45
2023-10-26T03:29:49.635Z,14.44
2023-10-26T03:32:17.755Z,14.47
2023-10-26T03:34:46.236Z,14.49
2023-10-26T03:37:14.301Z,14.38
2023-10-26T03:39:42.351Z,14.30
2023-10-26T03:42:11.816Z,14.31
2023-10-26T03:44:39.804Z,14.30
2023-10-26T03:47:08.808Z,14.31
2023-10-26T03:49:36.909Z,14.29
2023-10-26T03:52:05.460Z,14.28
2023-10-26T03:54:33.542Z,14.23
2023-10-26T03:57:01.715Z,14.20
2023-10-26T03:59:31.274Z,14.20
2023-10-26T04:01:59.843Z,14.21
2023-10-26T04:04:27.914Z,14.16
2023-10-26T04:06:55.931Z,13.99
2023-10-26T04:09:24.016Z,13.92
2023-10-26T04:11:52.079Z,13.90
2023-10-26T04:14:20.396Z,13.92
2023-10-26T04:16:51.029Z,13.96
2023-10-26T04:19:19.005Z,13.93
2023-10-26T04:21:47.374Z,13.93
2023-10-26T04:24:15.525Z,13.92
2023-10-26T04:26:44.342Z,13.87
2023-10-26T04:29:12.927Z,13.81
2023-10-26T04:31:41.029Z,13.87
2023-10-26T04:34:10.554Z,13.88
2023-10-26T04:36:38.632Z,13.84
2023-10-26T04:39:09.441Z,13.96
2023-10-26T04:41:37.496Z,13.93
2023-10-26T04:44:06.519Z,13.81
2023-10-26T04:46:34.646Z,13.81
2023-10-26T04:49:02.966Z,13.68
2023-10-26T04:51:33.667Z,13.66
2023-10-26T04:54:01.783Z,13.66
2023-10-26T04:56:29.975Z,13.73
2023-10-26T04:58:57.954Z,13.71
2023-10-26T05:01:25.973Z,13.70
2023-10-26T05:03:54.623Z,13.83
2023-10-26T05:06:22.785Z,13.82
2023-10-26T05:08:52.261Z,13.83
2023-10-26T05:11:21.474Z,13.86
2023-10-26T05:13:53.606Z,13.95
2023-10-26T05:16:22.015Z,14.04
2023-10-26T05:18:50.216Z,14.02
2023-10-26T05:21:18.356Z,14.06
2023-10-26T05:23:48.749Z,14.19
2023-10-26T05:26:18.110Z,14.27
2023-10-26T05:28:46.911Z,14.18
2023-10-26T05:31:15.429Z,14.40
2023-10-26T05:33:43.611Z,14.37
2023-10-26T05:36:12.041Z,14.34
2023-10-26T05:38:40.400Z,14.42
2023-10-26T05:41:08.442Z,14.45
2023-10-26T05:43:37.860Z,14.47
2023-10-26T05:46:07.693Z,14.57
2023-10-26T05:48:36.188Z,14.45
2023-10-26T05:51:04.444Z,14.45
2023-10-26T05:53:32.604Z,14.38
2023-10-26T05:56:01.494Z,14.50
2023-10-26T05:58:29.639Z,14.46
2023-10-26T06:00:59.222Z,14.55
2023-10-26T06:03:27.244Z,14.73
2023-10-26T06:06:00.886Z,14.87
2023-10-26T06:08:29.127Z,14.82
2023-10-26T06:10:59.339Z,14.90
2023-10-26T06:13:27.696Z,15.03
2023-10-26T06:15:55.957Z,15.07
2023-10-26T06:18:25.759Z,15.18
2023-10-26T06:21:00.421Z,15.13
2023-10-26T06:23:29.436Z,15.19
2023-10-26T06:26:01.297Z,15.17
2023-10-26T06:28:30.698Z,15.25
2023-10-26T06:31:09.947Z,15.36
2023-10-26T06:33:40.036Z,15.41
2023-10-26T06:36:09.510Z,15.43
2023-10-26T06:38:38.126Z,15.43
2023-10-26T06:41:07.019Z,15.56
2023-10-26T06:43:35.585Z,15.60
2023-10-26T06:46:03.751Z,15.62
2023-10-26T06:48:32.110Z,15.77
2023-10-26T06:51:03.266Z,15.84
2023-10-26T06:53:31.488Z,15.87
2023-10-26T06:55:59.758Z,15.91
2023-10-26T06:58:28.908Z,15.85
2023-10-26T07:00:57.057Z,15.85
2023-10-26T07:03:25.840Z,15.80
2023-10-26T07:05:54.196Z,15.86
2023-10-26T07:08:23.943Z,15.83
2023-10-26T07:10:52.171Z,15.92
2023-10-26T07:13:20.339Z,15.86
2023-10-26T07:15:48.686Z,15.84
2023-10-26T07:18:19.644Z,15.86
2023-10-26T07:20:50.511Z,15.95
2023-10-26T07:23:19.636Z,16.13
2023-10-26T07:25:53.190Z,16.16
2023-10-26T07:28:21.717Z,16.17
2023-10-26T07:30:52.719Z,16.15
2023-10-26T07:33:26.277Z,16.18
2023-10-26T07:35:56.797Z,16.22
2023-10-26T07:38:35.160Z,16.33
2023-10-26T07:41:07.575Z,16.38
2023-10-26T07:43:36.095Z,16.65
2023-10-26T07:46:04.800Z,16.73
2023-10-26T07:48:34.294Z,16.74
2023-10-26T07:51:02.993Z,16.64
2023-10-26T07:53:31.031Z,16.91
2023-10-26T07:55:59.297Z,17.02
2023-10-26T07:58:29.221Z,17.36
2023-10-26T08:00:57.324Z,17.58
2023-10-26T08:03:26.546Z,17.77
2023-10-26T08:05:58.357Z,17.87
2023-10-26T08:08:26.434Z,18.09
2023-10-26T08:10:54.531Z,18.19
2023-10-26T08:13:22.785Z,18.31
2023-10-26T08:16:28.904Z,18.77
2023-10-26T08:18:40.460Z,18.92
2023-10-26T08:21:09.507Z,18.77
2023-10-26T08:23:37.706Z,18.54
2023-10-26T08:26:09.605Z,18.34
2023-10-26T08:28:38.467Z,18.41
2023-10-26T08:31:09.072Z,18.25
2023-10-26T08:33:39.120Z,18.20
2023-10-26T08:36:07.812Z,18.16
2023-10-26T08:38:35.988Z,18.22
2023-10-26T08:41:04.120Z,18.33
2023-10-26T08:43:34.915Z,18.39
2023-10-26T08:46:04.672Z,18.33
2023-10-26T08:48:40.052Z,18.35
2023-10-26T08:51:08.589Z,18.31
2023-10-26T08:53:37.134Z,18.36
2023-10-26T08:56:05.976Z,18.44
2023-10-26T08:58:34.213Z,18.42
2023-10-26T09:01:02.685Z,18.53
2023-10-26T09:03:30.667Z,18.36
2023-10-26T09:06:00.124Z,18.34
2023-10-26T09:08:29.989Z,18.33
2023-10-26T09:10:58.081Z,18.46
2023-10-26T09:13:27.409Z,18.57
2023-10-26T09:15:58.594Z,18.71
2023-10-26T09:18:28.567Z,18.82
2023-10-26T09:21:07.227Z,18.96
2023-10-26T09:23:38.229Z,19.09
2023-10-26T09:26:09.152Z,19.09
2023-10-26T09:28:53.735Z,19.37
2023-10-26T09:31:22.254Z,19.44
2023-10-26T09:33:50.714Z,19.50
2023-10-26T09:36:22.481Z,19.56
2023-10-26T09:38:50.782Z,19.71
2023-10-26T09:41:20.937Z,19.92
2023-10-26T09:43:49.646Z,20.24
2023-10-26T09:46:19.055Z,20.32
2023-10-26T09:48:48.359Z,20.21
2023-10-26T09:51:17.668Z,20.30
2023-10-26T09:53:49.634Z,20.36
2023-10-26T09:56:23.187Z,20.49
2023-10-26T09:58:53.148Z,20.58
2023-10-26T10:01:35.306Z,20.68
2023-10-26T10:04:04.177Z,20.68
2023-10-26T10:06:52.603Z,20.62
2023-10-26T10:09:25.145Z,20.70
2023-10-26T10:12:30.631Z,20.73
2023-10-26T10:15:22.253Z,20.79
2023-10-26T10:18:06.873Z,20.79
2023-10-26T10:20:36.566Z,20.71
2023-10-26T10:23:05.885Z,20.80
2023-10-26T10:26:05.756Z,20.72
2023-10-26T10:28:55.779Z,20.58
2023-10-26T10:31:24.754Z,20.54
2023-10-26T10:34:04.650Z,20.53
2023-10-26T10:37:11.961Z,20.23
2023-10-26T10:39:40.780Z,20.36
2023-10-26T10:42:13.767Z,20.26
2023-10-26T10:44:43.727Z,20.49
2023-10-26T10:47:11.787Z,20.52
2023-10-26T10:49:39.856Z,20.64
2023-10-26T10:52:14.931Z,20.72
2023-10-26T10:55:02.901Z,20.70
2023-10-26T10:57:34.579Z,20.70
2023-10-26T11:00:02.629Z,20.73
2023-10-26T11:02:30.691Z,20.62
2023-10-26T11:05:12.859Z,20.53
2023-10-26T11:07:46.241Z,20.50
2023-10-26T11:10:14.301Z,20.58
2023-10-26T11:12:51.415Z,20.42
2023-10-26T11:15:19.660Z,20.52
2023-10-26T11:17:49.020Z,20.48
2023-10-26T11:20:38.625Z,20.56
2023-10-26T11:23:06.981Z,20.81
2023-10-26T11:25:35.080Z,20.79
2023-10-26T11:28:05.164Z,20.79
2023-10-26T11:30:48.694Z,20.69
2023-10-26T11:33:33.702Z,20.72
2023-10-26T11:36:02.318Z,20.84
2023-10-26T11:38:32.317Z,20.78
2023-10-26T11:41:00.469Z,20.74
2023-10-26T11:43:38.605Z,20.67
2023-10-26T11:46:07.262Z,20.47
2023-10-26T11:48:35.577Z,20.54
2023-10-26T11:51:07.838Z,20.57
2023-10-26T11:53:36.895Z,20.32
2023-10-26T11:56:08.393Z,20.35
2023-10-26T11:58:37.825Z,20.27
2023-10-26T12:01:07.222Z,20.27
2023-10-26T12:03:36.924Z,20.31
2023-10-26T12:06:05.116Z,20.45
2023-10-26T12:08:33.423Z,20.52
2023-10-26T12:11:01.538Z,20.45
2023-10-26T12:13:29.509Z,20.60
2023-10-26T12:15:59.007Z,20.77
2023-10-26T12:18:28.176Z,20.74
2023-10-26T12:20:56.388Z,20.70
2023-10-26T12:23:25.044Z,20.82
2023-10-26T12:25:53.567Z,21.03
2023-10-26T12:28:25.916Z,21.15
2023-10-26T12:30:55.968Z,21.25
2023-10-26T12:33:25.563Z,21.32
2023-10-26T12:35:53.547Z,21.28
2023-10-26T12:38:23.342Z,21.15
2023-10-26T12:40:51.481Z,21.22
2023-10-26T12:43:19.592Z,21.17
2023-10-26T12:45:47.688Z,21.09
2023-10-26T12:48:15.884Z,21.04
2023-10-26T12:50:45.307Z,21.03
2023-10-26T12:53:13.830Z,21.02
2023-10-26T12:55:42.049Z,20.84
2023-10-26T12:58:10.111Z,20.84
2023-10-26T13:00:38.269Z,20.84
2023-10-26T13:03:06.825Z,20.86
2023-10-26T13:05:34.824Z,20.84
2023-10-26T13:08:04.254Z,20.76
2023-10-26T13:10:32.607Z,20.73
2023-10-26T13:13:00.615Z,20.74
2023-10-26T13:15:28.784Z,20.99
2023-10-26T13:17:56.962Z,21.01
2023-10-26T13:20:27.166Z,21.19
2023-10-26T13:22:55.256Z,21.23
2023-10-26T13:25:27.125Z,21.23
2023-10-26T13:27:55.471Z,21.26
2023-10-26T13:30:23.632Z,21.16
2023-10-26T13:32:51.674Z,21.19
2023-10-26T13:35:19.701Z,21.14
2023-10-26T13:37:47.820Z,21.01
2023-10-26T13:40:15.814Z,20.99
2023-10-26T13:42:45.426Z,20.89
2023-10-26T13:45:16.221Z,20.88
2023-10-26T13:47:44.594Z,20.86
2023-10-26T13:50:12.683Z,20.90
2023-10-26T13:52:40.696Z,20.89
2023-10-26T13:55:09.282Z,20.90
2023-10-26T13:57:37.292Z,20.90
2023-10-26T14:00:10.019Z,20.89
2023-10-26T14:02:38.239Z,20.89
2023-10-26T14:05:14.853Z,20.89
2023-10-26T14:07:56.719Z,20.90
2023-10-26T14:10:25.518Z,20.89
2023-10-26T14:12:53.649Z,20.91
2023-10-26T14:15:23.261Z,20.91
2023-10-26T14:17:51.278Z,20.91
2023-10-26T14:20:19.444Z,20.90
2023-10-26T14:22:48.556Z,20.88
2023-10-26T14:25:16.598Z,20.87
2023-10-26T14:27:45.243Z,20.85
2023-10-26T14:30:14.203Z,20.82
2023-10-26T14:32:43.631Z,20.77
2023-10-26T14:35:11.627Z,20.74
2023-10-26T14:37:39.636Z,20.68
2023-10-26T14:40:09.509Z,20.64
2023-10-26T14:42:37.666Z,20.66
2023-10-26T14:45:06.607Z,20.62
2023-10-26T14:47:34.726Z,20.58
2023-10-26T14:50:04.381Z,20.57
2023-10-26T14:52:32.421Z,20.55
2023-10-26T14:55:02.595Z,20.57
2023-10-26T14:57:30.792Z,20.52
2023-10-26T14:59:58.854Z,20.54
2023-10-26T15:02:26.844Z,20.49
2023-10-26T15:04:54.902Z,20.45
2023-10-26T15:07:24.790Z,20.41
2023-10-26T15:10:23.266Z,20.35
2023-10-26T15:12:40.741Z,20.25
2023-10-26T15:15:09.398Z,20.18
2023-10-26T15:17:37.644Z,20.13
2023-10-26T15:20:07.009Z,20.08
2023-10-26T15:22:36.345Z,20.03
2023-10-26T15:25:04.751Z,19.99
2023-10-26T15:27:33.040Z,19.92
2023-10-26T15:30:01.187Z,19.87
2023-10-26T15:32:30.889Z,19.83
2023-10-26T15:34:59.215Z,19.80
2023-10-26T15:37:27.724Z,19.76
2023-10-26T15:39:57.587Z,19.70
2023-10-26T15:42:25.905Z,19.67
2023-10-26T15:44:54.058Z,19.60
2023-10-26T15:47:22.748Z,19.57
2023-10-26T15:50:10.371Z,19.61
2023-10-26T15:52:38.471Z,19.55
2023-10-26T15:55:08.497Z,19.47
2023-10-26T15:57:38.022Z,19.41
2023-10-26T16:00:10.811Z,19.36
2023-10-26T16:02:38.894Z,19.41
2023-10-26T16:05:07.542Z,19.39
2023-10-26T16:07:35.559Z,19.32
2023-10-26T16:10:03.550Z,19.24
2023-10-26T16:12:32.954Z,19.17
2023-10-26T16:15:01.100Z,19.09
2023-10-26T16:17:29.276Z,19.05
2023-10-26T16:19:59.155Z,19.08
2023-10-26T16:22:27.154Z,19.14
2023-10-26T16:24:55.123Z,19.13
2023-10-26T16:27:23.492Z,19.11
2023-10-26T16:29:53.061Z,19.03
2023-10-26T16:32:25.824Z,18.95
2023-10-26T16:34:53.821Z,18.89
2023-10-26T16:37:21.989Z,18.86
2023-10-26T16:39:50.205Z,18.87
2023-10-26T16:42:18.330Z,18.91
2023-10-26T16:44:46.445Z,18.94
2023-10-26T16:47:15.837Z,18.99
2023-10-26T16:49:43.967Z,18.99
2023-10-26T16:52:12.221Z,18.89
2023-10-26T16:54:40.289Z,18.83
2023-10-26T16:57:11.287Z,18.80
2023-10-26T16:59:39.572Z,18.86
2023-10-26T17:02:07.625Z,18.70
2023-10-26T17:04:37.085Z,18.58
2023-10-26T17:07:05.591Z,18.44
2023-10-26T17:09:33.644Z,18.32
2023-10-26T17:12:01.714Z,18.24
2023-10-26T17:14:29.724Z,18.21
2023-10-26T17:16:58.071Z,18.16
2023-10-26T17:19:26.317Z,18.16
2023-10-26T17:21:56.332Z,18.10
2023-10-26T17:24:25.002Z,18.03
2023-10-26T17:26:53.118Z,17.96
2023-10-26T17:29:21.693Z,17.91
2023-10-26T17:31:49.809Z,17.87
2023-10-26T17:34:17.860Z,17.85
2023-10-26T17:36:46.242Z,17.82
2023-10-26T17:39:15.717Z,17.82
2023-10-26T17:41:43.767Z,17.83
2023-10-26T17:44:11.776Z,17.78
2023-10-26T17:46:39.964Z,17.73
2023-10-26T17:49:08.264Z,17.67
2023-10-26T17:51:36.378Z,17.58
2023-10-26T17:54:05.306Z,17.48
2023-10-26T17:56:34.838Z,17.39
2023-10-26T17:59:02.998Z,17.31
2023-10-26T18:01:31.087Z,17.27
2023-10-26T18:03:59.144Z,17.23
2023-10-26T18:06:28.115Z,17.19
2023-10-26T18:08:56.602Z,17.15
2023-10-26T18:11:25.385Z,17.10
2023-10-26T18:13:54.730Z,17.06
2023-10-26T18:16:22.939Z,17.05
2023-10-26T18:18:51.046Z,17.07
2023-10-26T18:21:19.482Z,17.09
2023-10-26T18:23:47.473Z,17.06
2023-10-26T18:26:15.732Z,16.99
2023-10-26T18:28:45.105Z,16.88
2023-10-26T18:31:17.362Z,16.80
2023-10-26T18:33:47.299Z,16.80
2023-10-26T18:36:16.862Z,16.80
2023-10-26T18:38:45.135Z,16.73
2023-10-26T18:41:19.902Z,16.66
2023-10-26T18:43:49.375Z,16.62
2023-10-26T18:46:19.845Z,16.57
2023-10-26T18:48:48.302Z,16.46
2023-10-26T18:51:18.862Z,16.42
2023-10-26T18:53:47.251Z,16.40
2023-10-26T18:56:16.268Z,16.39
2023-10-26T18:58:44.847Z,16.36
2023-10-26T19:01:13.346Z,16.35
2023-10-26T19:03:57.440Z,16.37
2023-10-26T19:06:29.491Z,16.32
2023-10-26T19:08:57.642Z,16.31
2023-10-26T19:11:25.755Z,16.28
2023-10-26T19:13:54.273Z,16.25
2023-10-26T19:16:22.732Z,16.17
2023-10-26T19:18:52.239Z,16.12
2023-10-26T19:21:20.699Z,16.05
2023-10-26T19:23:48.651Z,16.00
2023-10-26T19:26:16.672Z,15.96
2023-10-26T19:28:44.764Z,15.94
2023-10-26T19:31:13.373Z,15.90
2023-10-26T19:33:43.535Z,15.94
2023-10-26T19:36:13.342Z,15.87
2023-10-26T19:38:41.633Z,15.79
2023-10-26T19:41:10.053Z,15.78
2023-10-26T19:43:38.014Z,15.78
2023-10-26T19:46:06.259Z,15.78
2023-10-26T19:48:34.317Z,15.75
2023-10-26T19:51:04.441Z,15.71
2023-10-26T19:53:36.814Z,15.76
2023-10-26T19:56:05.588Z,15.83
2023-10-26T19:58:33.596Z,15.81
2023-10-26T20:01:01.749Z,15.78
2023-10-26T20:03:29.866Z,15.72
2023-10-26T20:05:57.869Z,15.68
2023-10-26T20:08:25.936Z,15.65
2023-10-26T20:10:55.359Z,15.61
2023-10-26T20:13:23.376Z,15.56
2023-10-26T20:15:53.543Z,15.51
2023-10-26T20:18:21.705Z,15.47
2023-10-26T20:20:49.715Z,15.49
2023-10-26T20:23:18.114Z,15.45
2023-10-26T20:25:46.108Z,15.44
2023-10-26T20:28:17.139Z,15.38
2023-10-26T20:30:45.284Z,15.34
2023-10-26T20:33:13.358Z,15.31
2023-10-26T20:35:42.273Z,15.30
2023-10-26T20:38:11.021Z,15.29
2023-10-26T20:40:41.942Z,15.27
2023-10-26T20:43:09.950Z,15.22
2023-10-26T20:45:39.470Z,15.17
2023-10-26T20:48:07.577Z,15.09
2023-10-26T20:50:35.589Z,15.07
2023-10-26T20:53:04.520Z,15.01
2023-10-26T20:55:32.673Z,15.03
2023-10-26T20:58:01.089Z,15.00
2023-10-26T21:00:29.638Z,14.95
2023-10-26T21:02:59.104Z,14.93
2023-10-26T21:05:27.735Z,15.03
2023-10-26T21:07:56.225Z,15.03
2023-10-26T21:10:24.389Z,14.98
2023-10-26T21:12:52.652Z,14.94
2023-10-26T21:15:21.727Z,14.91
2023-10-26T21:17:49.773Z,14.89
2023-10-26T21:20:19.785Z,14.85
2023-10-26T21:22:48.677Z,14.80
2023-10-26T21:25:17.106Z,14.78
2023-10-26T21:27:45.155Z,14.76
2023-10-26T21:30:14.201Z,14.71
2023-10-26T21:32:42.307Z,14.72
2023-10-26T21:35:11.393Z,14.71
2023-10-26T21:37:40.779Z,14.69
2023-10-26T21:40:10.541Z,14.67
2023-10-26T21:42:38.815Z,14.65
2023-10-26T21:45:07.741Z,14.68
2023-10-26T21:47:35.795Z,14.65
2023-10-26T21:50:04.040Z,14.74
2023-10-26T21:52:32.116Z,14.72
2023-10-26T21:55:01.569Z,14.72
2023-10-26T21:57:29.533Z,14.73
2023-10-26T21:59:57.619Z,14.65
2023-10-26T22:02:26.102Z,14.55
2023-10-26T22:04:54.228Z,14.55
2023-10-26T22:07:22.701Z,14.41
2023-10-26T22:09:55.561Z,14.27
2023-10-26T22:12:25.485Z,14.17
2023-10-26T22:14:53.535Z,14.11
2023-10-26T22:17:21.662Z,14.09
2023-10-26T22:19:51.711Z,14.03
2023-10-26T22:22:20.025Z,14.00
2023-10-26T22:24:48.224Z,13.98
2023-10-26T22:27:16.323Z,13.97
2023-10-26T22:29:45.924Z,13.94
2023-10-26T22:32:14.112Z,13.93
2023-10-26T22:34:42.227Z,13.92
2023-10-26T22:37:10.242Z,13.90
2023-10-26T22:39:38.315Z,13.89
2023-10-26T22:42:05.722Z,13.87
2023-10-26T22:44:33.719Z,13.83
2023-10-26T22:47:03.132Z,13.83
2023-10-26T22:49:31.290Z,13.80
2023-10-26T22:51:59.441Z,13.77
2023-10-26T22:54:27.629Z,13.73
2023-10-26T22:56:55.568Z,13.73
2023-10-26T22:59:23.706Z,13.72
2023-10-26T23:01:52.616Z,13.67
2023-10-26T23:04:22.491Z,13.64
2023-10-26T23:06:50.695Z,13.59
2023-10-26T23:09:19.878Z,13.56
2023-10-26T23:11:47.841Z,13.54
2023-10-26T23:14:15.888Z,13.51
2023-10-26T23:16:49.291Z,13.47
2023-10-26T23:19:18.322Z,13.47
2023-10-26T23:21:48.817Z,13.46
2023-10-26T23:24:16.962Z,13.42
2023-10-26T23:26:45.068Z,13.40
2023-10-26T23:29:12.979Z,13.38
2023-10-26T23:31:40.985Z,13.36
2023-10-26T23:34:09.020Z,13.35
2023-10-26T23:36:37.108Z,13.34
2023-10-26T23:39:06.640Z,13.32
2023-10-26T23:41:34.709Z,13.30
2023-10-26T23:44:02.710Z,13.28
2023-10-26T23:46:30.739Z,13.27
2023-10-26T23:48:58.889Z,13.26
2023-10-26T23:51:26.953Z,13.23
2023-10-26T23:53:55.233Z,13.26
2023-10-26T23:56:24.621Z,13.23
2023-10-26T23:58:52.623Z,13.18
